sensor_id;sensor_type;location;lat;lon;timestamp;temperature;humidity
26541;DHT22;14206;50.202;10.948;2023-08-21T00:00:22;23.90;94.60
26541;DHT22;14206;50.202;10.948;2023-08-21T00:02:49;23.90;94.60
26541;DHT22;14206;50.202;10.948;2023-08-21T00:05:16;23.80;94.70
26541;DHT22;14206;50.202;10.948;2023-08-21T00:07:43;23.80;94.90
26541;DHT22;14206;50.202;10.948;2023-08-21T00:10:10;23.80;94.80
26541;DHT22;14206;50.202;10.948;2023-08-21T00:12:39;23.80;94.70
26541;DHT22;14206;50.202;10.948;2023-08-21T00:15:07;23.80;94.90
26541;DHT22;14206;50.202;10.948;2023-08-21T00:17:36;23.80;95.00
26541;DHT22;14206;50.202;10.948;2023-08-21T00:20:04;23.80;94.90
26541;DHT22;14206;50.202;10.948;2023-08-21T00:22:31;23.70;94.90
26541;DHT22;14206;50.202;10.948;2023-08-21T00:24:58;23.70;95.00
26541;DHT22;14206;50.202;10.948;2023-08-21T00:27:25;23.70;95.00
26541;DHT22;14206;50.202;10.948;2023-08-21T00:29:53;23.60;95.00
26541;DHT22;14206;50.202;10.948;2023-08-21T00:32:20;23.60;95.20
26541;DHT22;14206;50.202;10.948;2023-08-21T00:34:47;23.50;95.20
26541;DHT22;14206;50.202;10.948;2023-08-21T00:37:14;23.50;95.40
26541;DHT22;14206;50.202;10.948;2023-08-21T00:39:41;23.50;95.40
26541;DHT22;14206;50.202;10.948;2023-08-21T00:42:08;23.50;95.30
26541;DHT22;14206;50.202;10.948;2023-08-21T00:44:35;23.50;95.10
26541;DHT22;14206;50.202;10.948;2023-08-21T00:47:11;23.50;95.40
26541;DHT22;14206;50.202;10.948;2023-08-21T00:49:38;23.50;95.50
26541;DHT22;14206;50.202;10.948;2023-08-21T00:52:11;23.50;95.30
26541;DHT22;14206;50.202;10.948;2023-08-21T00:54:39;23.40;95.10
26541;DHT22;14206;50.202;10.948;2023-08-21T00:57:06;23.40;95.30
26541;DHT22;14206;50.202;10.948;2023-08-21T00:59:33;23.30;95.60
26541;DHT22;14206;50.202;10.948;2023-08-21T01:02:00;23.30;96.10
26541;DHT22;14206;50.202;10.948;2023-08-21T01:04:27;23.10;96.60
26541;DHT22;14206;50.202;10.948;2023-08-21T01:06:54;23.00;96.60
26541;DHT22;14206;50.202;10.948;2023-08-21T01:09:31;22.90;96.60
26541;DHT22;14206;50.202;10.948;2023-08-21T01:12:06;22.90;96.60
26541;DHT22;14206;50.202;10.948;2023-08-21T01:14:58;22.90;96.60
26541;DHT22;14206;50.202;10.948;2023-08-21T01:17:28;22.90;96.60
26541;DHT22;14206;50.202;10.948;2023-08-21T01:19:56;23.00;96.60
26541;DHT22;14206;50.202;10.948;2023-08-21T01:22:27;22.90;96.60
26541;DHT22;14206;50.202;10.948;2023-08-21T01:24:55;22.90;96.60
26541;DHT22;14206;50.202;10.948;2023-08-21T01:27:22;22.90;96.60
26541;DHT22;14206;50.202;10.948;2023-08-21T01:29:49;22.80;96.60
26541;DHT22;14206;50.202;10.948;2023-08-21T01:34:51;22.80;96.60
26541;DHT22;14206;50.202;10.948;2023-08-21T01:37:21;22.80;96.60
26541;DHT22;14206;50.202;10.948;2023-08-21T01:39:49;22.80;96.60
26541;DHT22;14206;50.202;10.948;2023-08-21T01:42:16;22.80;96.60
26541;DHT22;14206;50.202;10.948;2023-08-21T01:44:42;22.80;96.60
26541;DHT22;14206;50.202;10.948;2023-08-21T01:47:12;22.80;96.60
26541;DHT22;14206;50.202;10.948;2023-08-21T01:49:39;22.80;96.60
26541;DHT22;14206;50.202;10.948;2023-08-21T01:52:06;22.80;96.60
26541;DHT22;14206;50.202;10.948;2023-08-21T01:54:33;22.70;96.60
26541;DHT22;14206;50.202;10.948;2023-08-21T01:57:00;22.70;96.60
26541;DHT22;14206;50.202;10.948;2023-08-21T01:59:27;22.70;96.60
26541;DHT22;14206;50.202;10.948;2023-08-21T02:01:54;22.60;96.60
26541;DHT22;14206;50.202;10.948;2023-08-21T02:04:21;22.60;96.60
26541;DHT22;14206;50.202;10.948;2023-08-21T02:06:48;22.60;96.60
26541;DHT22;14206;50.202;10.948;2023-08-21T02:09:15;22.60;96.60
26541;DHT22;14206;50.202;10.948;2023-08-21T02:11:42;22.60;96.60
26541;DHT22;14206;50.202;10.948;2023-08-21T02:14:09;22.60;96.60
26541;DHT22;14206;50.202;10.948;2023-08-21T02:16:36;22.60;96.60
26541;DHT22;14206;50.202;10.948;2023-08-21T02:19:09;22.50;96.60
26541;DHT22;14206;50.202;10.948;2023-08-21T02:21:36;22.50;96.60
26541;DHT22;14206;50.202;10.948;2023-08-21T02:24:03;22.50;96.60
26541;DHT22;14206;50.202;10.948;2023-08-21T02:26:30;22.50;96.60
26541;DHT22;14206;50.202;10.948;2023-08-21T02:28:57;22.40;96.60
26541;DHT22;14206;50.202;10.948;2023-08-21T02:31:24;22.40;96.60
26541;DHT22;14206;50.202;10.948;2023-08-21T02:33:51;22.40;96.60
26541;DHT22;14206;50.202;10.948;2023-08-21T02:36:18;22.40;96.60
26541;DHT22;14206;50.202;10.948;2023-08-21T02:38:45;22.40;96.60
26541;DHT22;14206;50.202;10.948;2023-08-21T02:41:12;22.40;96.60
26541;DHT22;14206;50.202;10.948;2023-08-21T02:43:42;22.40;96.60
26541;DHT22;14206;50.202;10.948;2023-08-21T02:46:09;22.40;96.60
26541;DHT22;14206;50.202;10.948;2023-08-21T02:48:36;22.30;96.60
26541;DHT22;14206;50.202;10.948;2023-08-21T02:51:03;22.30;96.60
26541;DHT22;14206;50.202;10.948;2023-08-21T02:53:31;22.30;96.60
26541;DHT22;14206;50.202;10.948;2023-08-21T02:55:58;22.20;96.60
26541;DHT22;14206;50.202;10.948;2023-08-21T02:58:25;22.20;96.60
26541;DHT22;14206;50.202;10.948;2023-08-21T03:00:52;22.10;96.60
26541;DHT22;14206;50.202;10.948;2023-08-21T03:03:19;22.10;96.60
26541;DHT22;14206;50.202;10.948;2023-08-21T03:05:46;22.10;96.60
26541;DHT22;14206;50.202;10.948;2023-08-21T03:08:13;22.00;96.60
26541;DHT22;14206;50.202;10.948;2023-08-21T03:10:40;22.00;96.60
26541;DHT22;14206;50.202;10.948;2023-08-21T03:13:10;21.90;96.60
26541;DHT22;14206;50.202;10.948;2023-08-21T03:15:37;21.90;96.60
26541;DHT22;14206;50.202;10.948;2023-08-21T03:18:04;21.90;96.60
26541;DHT22;14206;50.202;10.948;2023-08-21T03:20:32;21.80;96.60
26541;DHT22;14206;50.202;10.948;2023-08-21T03:22:58;21.80;96.60
26541;DHT22;14206;50.202;10.948;2023-08-21T03:25:25;21.90;96.60
26541;DHT22;14206;50.202;10.948;2023-08-21T03:27:54;21.90;96.60
26541;DHT22;14206;50.202;10.948;2023-08-21T03:30:22;21.80;96.60
26541;DHT22;14206;50.202;10.948;2023-08-21T03:32:50;21.80;96.60
26541;DHT22;14206;50.202;10.948;2023-08-21T03:35:18;21.80;96.60
26541;DHT22;14206;50.202;10.948;2023-08-21T03:37:45;21.80;96.60
26541;DHT22;14206;50.202;10.948;2023-08-21T03:40:14;21.80;96.60
26541;DHT22;14206;50.202;10.948;2023-08-21T03:42:41;21.80;96.60
26541;DHT22;14206;50.202;10.948;2023-08-21T03:45:10;21.70;96.60
26541;DHT22;14206;50.202;10.948;2023-08-21T03:47:36;21.70;96.60
26541;DHT22;14206;50.202;10.948;2023-08-21T03:50:10;21.70;96.60
26541;DHT22;14206;50.202;10.948;2023-08-21T03:52:36;21.70;96.60
26541;DHT22;14206;50.202;10.948;2023-08-21T03:55:04;21.60;96.60
26541;DHT22;14206;50.202;10.948;2023-08-21T03:57:32;21.60;96.60
26541;DHT22;14206;50.202;10.948;2023-08-21T03:59:59;21.60;96.60
26541;DHT22;14206;50.202;10.948;2023-08-21T04:02:26;21.60;96.60
26541;DHT22;14206;50.202;10.948;2023-08-21T04:04:53;21.60;96.60
26541;DHT22;14206;50.202;10.948;2023-08-21T04:07:20;21.60;96.60
26541;DHT22;14206;50.202;10.948;2023-08-21T04:09:48;21.60;96.60
26541;DHT22;14206;50.202;10.948;2023-08-21T04:12:18;21.60;96.60
26541;DHT22;14206;50.202;10.948;2023-08-21T04:14:45;21.50;96.60
26541;DHT22;14206;50.202;10.948;2023-08-21T04:17:13;21.50;96.60
26541;DHT22;14206;50.202;10.948;2023-08-21T04:19:43;21.50;96.60
26541;DHT22;14206;50.202;10.948;2023-08-21T04:22:10;21.50;96.60
26541;DHT22;14206;50.202;10.948;2023-08-21T04:24:37;21.50;96.60
26541;DHT22;14206;50.202;10.948;2023-08-21T04:27:05;21.50;96.60
26541;DHT22;14206;50.202;10.948;2023-08-21T04:29:31;21.50;96.60
26541;DHT22;14206;50.202;10.948;2023-08-21T04:31:58;21.50;96.60
26541;DHT22;14206;50.202;10.948;2023-08-21T04:34:26;21.50;96.60
26541;DHT22;14206;50.202;10.948;2023-08-21T04:36:53;21.50;96.60
26541;DHT22;14206;50.202;10.948;2023-08-21T04:39:20;21.50;96.60
26541;DHT22;14206;50.202;10.948;2023-08-21T04:41:47;21.50;96.60
26541;DHT22;14206;50.202;10.948;2023-08-21T04:44:14;21.50;96.60
26541;DHT22;14206;50.202;10.948;2023-08-21T04:46:42;21.50;96.60
26541;DHT22;14206;50.202;10.948;2023-08-21T04:49:10;21.50;96.60
26541;DHT22;14206;50.202;10.948;2023-08-21T04:51:40;21.50;96.60
26541;DHT22;14206;50.202;10.948;2023-08-21T04:54:07;21.50;96.60
26541;DHT22;14206;50.202;10.948;2023-08-21T04:56:33;21.50;96.60
26541;DHT22;14206;50.202;10.948;2023-08-21T04:59:01;21.50;96.60
26541;DHT22;14206;50.202;10.948;2023-08-21T05:01:30;21.50;96.60
26541;DHT22;14206;50.202;10.948;2023-08-21T05:03:59;21.40;96.60
26541;DHT22;14206;50.202;10.948;2023-08-21T05:06:26;21.50;96.60
26541;DHT22;14206;50.202;10.948;2023-08-21T05:08:53;21.50;96.60
26541;DHT22;14206;50.202;10.948;2023-08-21T05:11:19;21.50;96.60
26541;DHT22;14206;50.202;10.948;2023-08-21T05:13:46;21.60;96.60
26541;DHT22;14206;50.202;10.948;2023-08-21T05:16:16;21.70;96.60
26541;DHT22;14206;50.202;10.948;2023-08-21T05:18:43;21.70;96.60
26541;DHT22;14206;50.202;10.948;2023-08-21T05:21:13;21.80;96.60
26541;DHT22;14206;50.202;10.948;2023-08-21T05:23:41;21.90;96.60
26541;DHT22;14206;50.202;10.948;2023-08-21T05:26:09;22.00;96.60
26541;DHT22;14206;50.202;10.948;2023-08-21T05:28:36;22.10;96.60
26541;DHT22;14206;50.202;10.948;2023-08-21T05:31:04;22.10;96.60
26541;DHT22;14206;50.202;10.948;2023-08-21T05:33:43;22.20;96.60
26541;DHT22;14206;50.202;10.948;2023-08-21T05:36:13;22.30;96.60
26541;DHT22;14206;50.202;10.948;2023-08-21T05:38:40;22.40;96.60
26541;DHT22;14206;50.202;10.948;2023-08-21T05:41:07;22.60;96.60
26541;DHT22;14206;50.202;10.948;2023-08-21T05:43:34;22.80;96.60
26541;DHT22;14206;50.202;10.948;2023-08-21T05:46:06;23.00;96.60
26541;DHT22;14206;50.202;10.948;2023-08-21T05:48:33;23.10;96.60
26541;DHT22;14206;50.202;10.948;2023-08-21T05:51:00;23.20;96.60
26541;DHT22;14206;50.202;10.948;2023-08-21T05:53:27;23.20;96.60
26541;DHT22;14206;50.202;10.948;2023-08-21T05:55:54;23.20;96.60
26541;DHT22;14206;50.202;10.948;2023-08-21T05:58:21;23.30;96.60
26541;DHT22;14206;50.202;10.948;2023-08-21T06:00:49;23.40;96.60
26541;DHT22;14206;50.202;10.948;2023-08-21T06:03:16;23.40;96.60
26541;DHT22;14206;50.202;10.948;2023-08-21T06:05:53;23.40;96.60
26541;DHT22;14206;50.202;10.948;2023-08-21T06:08:20;23.30;96.60
26541;DHT22;14206;50.202;10.948;2023-08-21T06:10:51;23.30;96.60
26541;DHT22;14206;50.202;10.948;2023-08-21T06:13:19;23.30;96.60
26541;DHT22;14206;50.202;10.948;2023-08-21T06:15:49;23.30;96.60
26541;DHT22;14206;50.202;10.948;2023-08-21T06:18:16;23.30;96.60
26541;DHT22;14206;50.202;10.948;2023-08-21T06:20:44;23.30;96.60
26541;DHT22;14206;50.202;10.948;2023-08-21T06:23:12;23.30;96.60
26541;DHT22;14206;50.202;10.948;2023-08-21T06:25:38;23.40;96.60
26541;DHT22;14206;50.202;10.948;2023-08-21T06:28:05;23.40;96.60
26541;DHT22;14206;50.202;10.948;2023-08-21T06:30:32;23.50;96.60
26541;DHT22;14206;50.202;10.948;2023-08-21T06:32:59;23.60;96.60
26541;DHT22;14206;50.202;10.948;2023-08-21T06:35:27;23.70;96.60
26541;DHT22;14206;50.202;10.948;2023-08-21T06:37:54;23.80;96.60
26541;DHT22;14206;50.202;10.948;2023-08-21T06:40:27;23.90;96.60
26541;DHT22;14206;50.202;10.948;2023-08-21T06:42:54;23.90;96.60
26541;DHT22;14206;50.202;10.948;2023-08-21T06:45:25;24.10;96.60
26541;DHT22;14206;50.202;10.948;2023-08-21T06:47:55;24.20;96.60
26541;DHT22;14206;50.202;10.948;2023-08-21T06:50:22;24.30;96.00
26541;DHT22;14206;50.202;10.948;2023-08-21T06:52:49;24.50;95.80
26541;DHT22;14206;50.202;10.948;2023-08-21T06:55:16;24.60;96.30
26541;DHT22;14206;50.202;10.948;2023-08-21T06:57:43;24.80;95.70
26541;DHT22;14206;50.202;10.948;2023-08-21T07:00:10;24.90;95.80
26541;DHT22;14206;50.202;10.948;2023-08-21T07:02:37;25.10;95.50
26541;DHT22;14206;50.202;10.948;2023-08-21T07:05:04;25.20;94.40
26541;DHT22;14206;50.202;10.948;2023-08-21T07:07:31;25.50;93.50
26541;DHT22;14206;50.202;10.948;2023-08-21T07:09:58;25.70;93.00
26541;DHT22;14206;50.202;10.948;2023-08-21T07:12:25;25.80;92.80
26541;DHT22;14206;50.202;10.948;2023-08-21T07:14:52;26.10;92.70
26541;DHT22;14206;50.202;10.948;2023-08-21T07:17:19;26.40;91.50
26541;DHT22;14206;50.202;10.948;2023-08-21T07:19:46;26.70;89.80
26541;DHT22;14206;50.202;10.948;2023-08-21T07:22:13;26.90;90.30
26541;DHT22;14206;50.202;10.948;2023-08-21T07:24:40;27.20;90.00
26541;DHT22;14206;50.202;10.948;2023-08-21T07:27:07;27.40;89.50
26541;DHT22;14206;50.202;10.948;2023-08-21T07:29:34;27.50;89.20
26541;DHT22;14206;50.202;10.948;2023-08-21T07:32:01;27.50;89.00
26541;DHT22;14206;50.202;10.948;2023-08-21T07:34:28;27.60;88.60
26541;DHT22;14206;50.202;10.948;2023-08-21T07:36:55;28.00;87.60
26541;DHT22;14206;50.202;10.948;2023-08-21T07:39:22;28.60;86.60
26541;DHT22;14206;50.202;10.948;2023-08-21T07:41:49;29.20;85.00
26541;DHT22;14206;50.202;10.948;2023-08-21T07:44:16;29.90;81.70
26541;DHT22;14206;50.202;10.948;2023-08-21T07:46:43;30.50;80.70
26541;DHT22;14206;50.202;10.948;2023-08-21T07:49:10;31.10;79.60
26541;DHT22;14206;50.202;10.948;2023-08-21T07:51:37;31.90;76.40
26541;DHT22;14206;50.202;10.948;2023-08-21T07:54:03;32.60;77.10
26541;DHT22;14206;50.202;10.948;2023-08-21T07:56:30;33.30;74.70
26541;DHT22;14206;50.202;10.948;2023-08-21T07:58:57;34.10;72.00
26541;DHT22;14206;50.202;10.948;2023-08-21T08:01:24;34.90;70.70
26541;DHT22;14206;50.202;10.948;2023-08-21T08:03:51;35.70;68.50
26541;DHT22;14206;50.202;10.948;2023-08-21T08:06:18;36.60;65.80
26541;DHT22;14206;50.202;10.948;2023-08-21T08:08:45;37.40;64.50
26541;DHT22;14206;50.202;10.948;2023-08-21T08:11:12;38.20;62.90
26541;DHT22;14206;50.202;10.948;2023-08-21T08:13:39;38.90;61.30
26541;DHT22;14206;50.202;10.948;2023-08-21T08:16:06;39.50;59.70
26541;DHT22;14206;50.202;10.948;2023-08-21T08:18:33;40.20;58.40
26541;DHT22;14206;50.202;10.948;2023-08-21T08:21:00;40.90;56.70
26541;DHT22;14206;50.202;10.948;2023-08-21T08:23:27;41.50;56.40
26541;DHT22;14206;50.202;10.948;2023-08-21T08:25:54;42.00;53.70
26541;DHT22;14206;50.202;10.948;2023-08-21T08:28:20;42.40;53.00
26541;DHT22;14206;50.202;10.948;2023-08-21T08:30:47;42.70;53.20
26541;DHT22;14206;50.202;10.948;2023-08-21T08:33:14;43.10;52.30
26541;DHT22;14206;50.202;10.948;2023-08-21T08:35:43;43.40;51.30
26541;DHT22;14206;50.202;10.948;2023-08-21T08:38:10;43.70;50.30
26541;DHT22;14206;50.202;10.948;2023-08-21T08:40:46;44.00;50.60
26541;DHT22;14206;50.202;10.948;2023-08-21T08:43:13;44.30;49.70
26541;DHT22;14206;50.202;10.948;2023-08-21T08:45:41;44.60;48.50
26541;DHT22;14206;50.202;10.948;2023-08-21T08:48:08;44.60;48.90
26541;DHT22;14206;50.202;10.948;2023-08-21T08:50:37;44.70;47.70
26541;DHT22;14206;50.202;10.948;2023-08-21T08:53:06;44.90;47.70
26541;DHT22;14206;50.202;10.948;2023-08-21T08:55:43;45.20;48.30
26541;DHT22;14206;50.202;10.948;2023-08-21T08:58:10;45.40;48.90
26541;DHT22;14206;50.202;10.948;2023-08-21T09:00:37;45.70;48.10
26541;DHT22;14206;50.202;10.948;2023-08-21T09:03:05;45.90;46.70
26541;DHT22;14206;50.202;10.948;2023-08-21T09:05:33;46.10;46.50
26541;DHT22;14206;50.202;10.948;2023-08-21T09:08:19;46.20;45.60
26541;DHT22;14206;50.202;10.948;2023-08-21T09:10:46;46.40;44.40
26541;DHT22;14206;50.202;10.948;2023-08-21T09:13:15;46.60;45.90
26541;DHT22;14206;50.202;10.948;2023-08-21T09:15:44;46.80;44.70
26541;DHT22;14206;50.202;10.948;2023-08-21T09:18:14;46.90;45.40
26541;DHT22;14206;50.202;10.948;2023-08-21T09:20:42;47.20;44.20
26541;DHT22;14206;50.202;10.948;2023-08-21T09:23:14;47.10;44.80
26541;DHT22;14206;50.202;10.948;2023-08-21T09:25:41;47.20;44.40
26541;DHT22;14206;50.202;10.948;2023-08-21T09:28:11;47.40;44.50
26541;DHT22;14206;50.202;10.948;2023-08-21T09:30:49;47.60;44.20
26541;DHT22;14206;50.202;10.948;2023-08-21T09:33:18;47.90;42.40
26541;DHT22;14206;50.202;10.948;2023-08-21T09:35:45;48.10;43.30
26541;DHT22;14206;50.202;10.948;2023-08-21T09:38:12;48.10;41.80
26541;DHT22;14206;50.202;10.948;2023-08-21T09:40:42;48.10;42.00
26541;DHT22;14206;50.202;10.948;2023-08-21T09:43:11;48.30;42.10
26541;DHT22;14206;50.202;10.948;2023-08-21T09:45:38;48.50;41.00
26541;DHT22;14206;50.202;10.948;2023-08-21T09:48:06;48.60;40.90
26541;DHT22;14206;50.202;10.948;2023-08-21T09:50:34;48.70;41.20
26541;DHT22;14206;50.202;10.948;2023-08-21T09:53:02;48.90;41.20
26541;DHT22;14206;50.202;10.948;2023-08-21T09:55:32;48.50;41.50
26541;DHT22;14206;50.202;10.948;2023-08-21T09:57:59;48.00;41.00
26541;DHT22;14206;50.202;10.948;2023-08-21T10:00:30;48.00;41.40
26541;DHT22;14206;50.202;10.948;2023-08-21T10:03:03;47.50;41.90
26541;DHT22;14206;50.202;10.948;2023-08-21T10:05:32;47.60;41.20
26541;DHT22;14206;50.202;10.948;2023-08-21T10:08:04;47.80;41.30
26541;DHT22;14206;50.202;10.948;2023-08-21T10:10:36;48.20;39.30
26541;DHT22;14206;50.202;10.948;2023-08-21T10:13:04;48.60;40.10
26541;DHT22;14206;50.202;10.948;2023-08-21T10:15:32;48.70;37.90
26541;DHT22;14206;50.202;10.948;2023-08-21T10:20:47;49.10;37.50
26541;DHT22;14206;50.202;10.948;2023-08-21T10:25:58;49.30;37.20
26541;DHT22;14206;50.202;10.948;2023-08-21T10:29:02;49.40;38.30
26541;DHT22;14206;50.202;10.948;2023-08-21T10:31:39;49.30;36.20
26541;DHT22;14206;50.202;10.948;2023-08-21T10:34:09;49.40;38.60
26541;DHT22;14206;50.202;10.948;2023-08-21T10:37:07;49.70;37.70
26541;DHT22;14206;50.202;10.948;2023-08-21T10:39:36;49.90;38.10
26541;DHT22;14206;50.202;10.948;2023-08-21T10:44:36;50.50;37.00
26541;DHT22;14206;50.202;10.948;2023-08-21T10:49:57;50.50;34.60
26541;DHT22;14206;50.202;10.948;2023-08-21T10:52:26;50.40;36.50
26541;DHT22;14206;50.202;10.948;2023-08-21T10:54:55;50.20;37.40
26541;DHT22;14206;50.202;10.948;2023-08-21T10:57:27;50.10;37.60
26541;DHT22;14206;50.202;10.948;2023-08-21T10:59:56;50.20;38.20
26541;DHT22;14206;50.202;10.948;2023-08-21T11:02:27;50.00;37.80
26541;DHT22;14206;50.202;10.948;2023-08-21T11:04:57;50.20;37.20
26541;DHT22;14206;50.202;10.948;2023-08-21T11:07:25;50.00;36.30
26541;DHT22;14206;50.202;10.948;2023-08-21T11:09:52;49.90;37.10
26541;DHT22;14206;50.202;10.948;2023-08-21T11:12:21;49.80;37.80
26541;DHT22;14206;50.202;10.948;2023-08-21T11:14:50;49.60;37.60
26541;DHT22;14206;50.202;10.948;2023-08-21T11:17:18;49.50;36.70
26541;DHT22;14206;50.202;10.948;2023-08-21T11:19:46;49.10;35.90
26541;DHT22;14206;50.202;10.948;2023-08-21T11:22:16;48.30;37.40
26541;DHT22;14206;50.202;10.948;2023-08-21T11:24:44;48.10;37.80
26541;DHT22;14206;50.202;10.948;2023-08-21T11:27:14;48.20;37.20
26541;DHT22;14206;50.202;10.948;2023-08-21T11:29:43;48.40;38.60
26541;DHT22;14206;50.202;10.948;2023-08-21T11:32:13;48.40;36.80
26541;DHT22;14206;50.202;10.948;2023-08-21T11:34:41;48.40;37.80
26541;DHT22;14206;50.202;10.948;2023-08-21T11:37:09;47.90;38.20
26541;DHT22;14206;50.202;10.948;2023-08-21T11:39:44;47.80;38.80
26541;DHT22;14206;50.202;10.948;2023-08-21T11:42:12;48.00;39.50
26541;DHT22;14206;50.202;10.948;2023-08-21T11:44:42;48.20;37.40
26541;DHT22;14206;50.202;10.948;2023-08-21T11:47:09;47.60;37.70
26541;DHT22;14206;50.202;10.948;2023-08-21T11:49:38;46.20;39.00
26541;DHT22;14206;50.202;10.948;2023-08-21T11:52:05;45.00;39.00
26541;DHT22;14206;50.202;10.948;2023-08-21T11:54:37;43.90;41.70
26541;DHT22;14206;50.202;10.948;2023-08-21T11:57:08;44.30;41.20
26541;DHT22;14206;50.202;10.948;2023-08-21T11:59:36;45.00;39.20
26541;DHT22;14206;50.202;10.948;2023-08-21T12:02:24;45.30;39.10
26541;DHT22;14206;50.202;10.948;2023-08-21T12:05:02;46.00;40.10
26541;DHT22;14206;50.202;10.948;2023-08-21T12:07:29;46.40;38.70
26541;DHT22;14206;50.202;10.948;2023-08-21T12:09:56;46.70;39.20
26541;DHT22;14206;50.202;10.948;2023-08-21T12:12:24;46.80;39.00
26541;DHT22;14206;50.202;10.948;2023-08-21T12:14:51;46.90;38.30
26541;DHT22;14206;50.202;10.948;2023-08-21T12:17:18;46.90;37.30
26541;DHT22;14206;50.202;10.948;2023-08-21T12:19:45;46.70;38.00
26541;DHT22;14206;50.202;10.948;2023-08-21T12:22:12;46.40;38.40
26541;DHT22;14206;50.202;10.948;2023-08-21T12:24:39;45.90;38.90
26541;DHT22;14206;50.202;10.948;2023-08-21T12:27:06;45.60;39.60
26541;DHT22;14206;50.202;10.948;2023-08-21T12:29:33;44.60;39.60
26541;DHT22;14206;50.202;10.948;2023-08-21T12:32:01;43.40;41.50
26541;DHT22;14206;50.202;10.948;2023-08-21T12:34:29;42.50;42.20
26541;DHT22;14206;50.202;10.948;2023-08-21T12:36:56;42.20;42.20
26541;DHT22;14206;50.202;10.948;2023-08-21T12:39:23;42.30;42.80
26541;DHT22;14206;50.202;10.948;2023-08-21T12:41:50;42.10;43.30
26541;DHT22;14206;50.202;10.948;2023-08-21T12:44:17;42.00;42.80
26541;DHT22;14206;50.202;10.948;2023-08-21T12:46:44;42.40;42.10
26541;DHT22;14206;50.202;10.948;2023-08-21T12:49:11;43.00;42.60
26541;DHT22;14206;50.202;10.948;2023-08-21T12:51:39;43.50;42.30
26541;DHT22;14206;50.202;10.948;2023-08-21T12:54:06;43.60;42.00
26541;DHT22;14206;50.202;10.948;2023-08-21T12:56:36;43.60;43.50
26541;DHT22;14206;50.202;10.948;2023-08-21T12:59:02;43.20;42.60
26541;DHT22;14206;50.202;10.948;2023-08-21T13:01:30;42.90;43.80
26541;DHT22;14206;50.202;10.948;2023-08-21T13:03:58;43.00;43.60
26541;DHT22;14206;50.202;10.948;2023-08-21T13:06:25;43.10;42.90
26541;DHT22;14206;50.202;10.948;2023-08-21T13:08:52;43.00;41.00
26541;DHT22;14206;50.202;10.948;2023-08-21T13:11:20;42.30;43.30
26541;DHT22;14206;50.202;10.948;2023-08-21T13:13:48;41.60;43.80
26541;DHT22;14206;50.202;10.948;2023-08-21T13:16:16;40.70;44.10
26541;DHT22;14206;50.202;10.948;2023-08-21T13:18:47;40.30;46.40
26541;DHT22;14206;50.202;10.948;2023-08-21T13:21:14;39.70;46.00
26541;DHT22;14206;50.202;10.948;2023-08-21T13:23:41;39.00;47.80
26541;DHT22;14206;50.202;10.948;2023-08-21T13:26:08;38.60;47.70
26541;DHT22;14206;50.202;10.948;2023-08-21T13:28:35;38.30;48.00
26541;DHT22;14206;50.202;10.948;2023-08-21T13:31:02;37.90;48.40
26541;DHT22;14206;50.202;10.948;2023-08-21T13:33:29;37.40;49.30
26541;DHT22;14206;50.202;10.948;2023-08-21T13:35:57;36.90;50.10
26541;DHT22;14206;50.202;10.948;2023-08-21T13:38:24;36.60;50.30
26541;DHT22;14206;50.202;10.948;2023-08-21T13:40:51;36.40;50.20
26541;DHT22;14206;50.202;10.948;2023-08-21T13:43:17;36.10;52.10
26541;DHT22;14206;50.202;10.948;2023-08-21T13:45:47;35.90;50.50
26541;DHT22;14206;50.202;10.948;2023-08-21T13:48:15;35.60;51.80
26541;DHT22;14206;50.202;10.948;2023-08-21T13:50:43;35.40;53.80
26541;DHT22;14206;50.202;10.948;2023-08-21T13:53:10;35.20;52.90
26541;DHT22;14206;50.202;10.948;2023-08-21T13:55:37;35.00;53.00
26541;DHT22;14206;50.202;10.948;2023-08-21T13:58:05;34.70;52.90
26541;DHT22;14206;50.202;10.948;2023-08-21T14:00:32;34.40;51.80
26541;DHT22;14206;50.202;10.948;2023-08-21T14:03:01;34.30;52.60
26541;DHT22;14206;50.202;10.948;2023-08-21T14:05:28;34.20;53.60
26541;DHT22;14206;50.202;10.948;2023-08-21T14:07:58;34.10;54.40
26541;DHT22;14206;50.202;10.948;2023-08-21T14:10:25;33.90;55.80
26541;DHT22;14206;50.202;10.948;2023-08-21T14:12:52;33.90;54.20
26541;DHT22;14206;50.202;10.948;2023-08-21T14:15:19;33.80;55.50
26541;DHT22;14206;50.202;10.948;2023-08-21T14:17:47;33.60;55.50
26541;DHT22;14206;50.202;10.948;2023-08-21T14:20:16;33.50;56.30
26541;DHT22;14206;50.202;10.948;2023-08-21T14:22:43;33.50;57.50
26541;DHT22;14206;50.202;10.948;2023-08-21T14:25:10;33.50;57.00
26541;DHT22;14206;50.202;10.948;2023-08-21T14:27:37;33.40;59.20
26541;DHT22;14206;50.202;10.948;2023-08-21T14:30:05;33.40;58.10
26541;DHT22;14206;50.202;10.948;2023-08-21T14:32:33;33.30;58.20
26541;DHT22;14206;50.202;10.948;2023-08-21T14:35:04;33.30;58.30
26541;DHT22;14206;50.202;10.948;2023-08-21T14:37:35;33.30;57.30
26541;DHT22;14206;50.202;10.948;2023-08-21T14:40:02;33.10;58.40
26541;DHT22;14206;50.202;10.948;2023-08-21T14:42:37;33.10;58.60
26541;DHT22;14206;50.202;10.948;2023-08-21T14:45:06;33.00;58.70
26541;DHT22;14206;50.202;10.948;2023-08-21T14:47:33;33.00;59.30
26541;DHT22;14206;50.202;10.948;2023-08-21T14:50:00;33.00;59.30
26541;DHT22;14206;50.202;10.948;2023-08-21T14:52:27;33.10;59.80
26541;DHT22;14206;50.202;10.948;2023-08-21T14:54:54;33.10;59.40
26541;DHT22;14206;50.202;10.948;2023-08-21T14:57:21;33.20;60.30
26541;DHT22;14206;50.202;10.948;2023-08-21T14:59:47;33.20;59.70
26541;DHT22;14206;50.202;10.948;2023-08-21T15:02:14;33.30;59.00
26541;DHT22;14206;50.202;10.948;2023-08-21T15:04:42;33.30;58.70
26541;DHT22;14206;50.202;10.948;2023-08-21T15:07:09;33.20;56.60
26541;DHT22;14206;50.202;10.948;2023-08-21T15:09:36;33.10;57.10
26541;DHT22;14206;50.202;10.948;2023-08-21T15:12:05;33.00;58.90
26541;DHT22;14206;50.202;10.948;2023-08-21T15:14:32;33.00;60.10
26541;DHT22;14206;50.202;10.948;2023-08-21T15:16:59;32.90;60.00
26541;DHT22;14206;50.202;10.948;2023-08-21T15:19:45;32.80;59.40
26541;DHT22;14206;50.202;10.948;2023-08-21T15:22:12;32.70;59.70
26541;DHT22;14206;50.202;10.948;2023-08-21T15:24:39;32.50;59.70
26541;DHT22;14206;50.202;10.948;2023-08-21T15:27:06;32.30;61.60
26541;DHT22;14206;50.202;10.948;2023-08-21T15:29:33;32.20;60.30
26541;DHT22;14206;50.202;10.948;2023-08-21T15:32:00;32.20;60.30
26541;DHT22;14206;50.202;10.948;2023-08-21T15:34:27;32.20;62.50